sensor_id;sensor_type;location;lat;lon;timestamp;pressure;altitude;pressure_sealevel;temperature;humidity
32933;BME280;19444;50.518;10.870;2023-01-13T00:00:51;95788.91;;;6.19;100.00
32933;BME280;19444;50.518;10.870;2023-01-13T00:03:48;95791.28;;;6.21;100.00
32933;BME280;19444;50.518;10.870;2023-01-13T00:06:45;95784.78;;;6.27;100.00
32933;BME280;19444;50.518;10.870;2023-01-13T00:09:42;95787.44;;;6.27;100.00
32933;BME280;19444;50.518;10.870;2023-01-13T00:12:42;95787.16;;;6.28;100.00
32933;BME280;19444;50.518;10.870;2023-01-13T00:15:39;95783.03;;;6.22;100.00
32933;BME280;19444;50.518;10.870;2023-01-13T00:18:36;95770.50;;;6.23;100.00
32933;BME280;19444;50.518;10.870;2023-01-13T00:21:33;95773.19;;;6.23;100.00
32933;BME280;19444;50.518;10.870;2023-01-13T00:24:31;95777.09;;;6.25;100.00
32933;BME280;19444;50.518;10.870;2023-01-13T00:27:28;95770.31;;;6.19;100.00
32933;BME280;19444;50.518;10.870;2023-01-13T00:30:25;95771.00;;;6.25;100.00
32933;BME280;19444;50.518;10.870;2023-01-13T00:33:21;95775.13;;;6.17;100.00
32933;BME280;19444;50.518;10.870;2023-01-13T00:36:20;95773.56;;;6.16;100.00
32933;BME280;19444;50.518;10.870;2023-01-13T00:39:17;95753.69;;;6.14;100.00
32933;BME280;19444;50.518;10.870;2023-01-13T00:42:14;95762.13;;;6.16;100.00
32933;BME280;19444;50.518;10.870;2023-01-13T00:45:29;95748.66;;;6.62;100.00
32933;BME280;19444;50.518;10.870;2023-01-13T00:48:28;95746.00;;;6.48;100.00
32933;BME280;19444;50.518;10.870;2023-01-13T00:51:25;95746.59;;;6.59;100.00
32933;BME280;19444;50.518;10.870;2023-01-13T00:54:23;95744.25;;;6.44;100.00
32933;BME280;19444;50.518;10.870;2023-01-13T00:57:20;95753.22;;;6.48;100.00
32933;BME280;19444;50.518;10.870;2023-01-13T01:00:17;95746.78;;;6.49;100.00
32933;BME280;19444;50.518;10.870;2023-01-13T01:03:14;95741.16;;;6.64;100.00
32933;BME280;19444;50.518;10.870;2023-01-13T01:06:14;95737.63;;;6.55;100.00
32933;BME280;19444;50.518;10.870;2023-01-13T01:09:13;95738.41;;;6.55;100.00
32933;BME280;19444;50.518;10.870;2023-01-13T01:12:10;95738.09;;;6.57;100.00
32933;BME280;19444;50.518;10.870;2023-01-13T01:15:07;95739.50;;;6.54;100.00
32933;BME280;19444;50.518;10.870;2023-01-13T01:18:06;95738.78;;;6.63;100.00
32933;BME280;19444;50.518;10.870;2023-01-13T01:21:03;95729.94;;;6.53;100.00
32933;BME280;19444;50.518;10.870;2023-01-13T01:24:01;95731.03;;;6.52;100.00
32933;BME280;19444;50.518;10.870;2023-01-13T01:26:58;95732.19;;;6.60;100.00
32933;BME280;19444;50.518;10.870;2023-01-13T01:29:55;95734.06;;;6.60;100.00
32933;BME280;19444;50.518;10.870;2023-01-13T01:32:52;95734.16;;;6.68;100.00
32933;BME280;19444;50.518;10.870;2023-01-13T01:35:49;95734.34;;;6.58;100.00
32933;BME280;19444;50.518;10.870;2023-01-13T01:38:47;95726.88;;;6.60;100.00
32933;BME280;19444;50.518;10.870;2023-01-13T01:41:44;95724.13;;;6.51;100.00
32933;BME280;19444;50.518;10.870;2023-01-13T01:45:29;95722.66;;;6.59;100.00
32933;BME280;19444;50.518;10.870;2023-01-13T01:48:19;95706.38;;;6.61;100.00
32933;BME280;19444;50.518;10.870;2023-01-13T01:51:16;95720.47;;;6.61;100.00
32933;BME280;19444;50.518;10.870;2023-01-13T01:54:18;95710.22;;;6.54;100.00
32933;BME280;19444;50.518;10.870;2023-01-13T01:57:18;95707.56;;;6.54;100.00
32933;BME280;19444;50.518;10.870;2023-01-13T02:00:17;95709.50;;;6.63;100.00
32933;BME280;19444;50.518;10.870;2023-01-13T02:03:14;95714.94;;;6.57;100.00
32933;BME280;19444;50.518;10.870;2023-01-13T02:06:12;95708.03;;;6.56;100.00
32933;BME280;19444;50.518;10.870;2023-01-13T02:09:09;95703.63;;;6.52;100.00
32933;BME280;19444;50.518;10.870;2023-01-13T02:12:06;95707.47;;;6.46;100.00
32933;BME280;19444;50.518;10.870;2023-01-13T02:28:30;95686.09;;;6.73;100.00
32933;BME280;19444;50.518;10.870;2023-01-13T02:31:34;95691.25;;;6.70;100.00
32933;BME280;19444;50.518;10.870;2023-01-13T02:34:41;95693.59;;;6.71;100.00
32933;BME280;19444;50.518;10.870;2023-01-13T02:37:41;95685.91;;;6.70;100.00
32933;BME280;19444;50.518;10.870;2023-01-13T02:40:44;95690.63;;;6.73;100.00
32933;BME280;19444;50.518;10.870;2023-01-13T02:43:42;95683.56;;;6.68;100.00
32933;BME280;19444;50.518;10.870;2023-01-13T02:47:09;95683.72;;;6.72;100.00
32933;BME280;19444;50.518;10.870;2023-01-13T02:50:15;95675.84;;;6.67;100.00
32933;BME280;19444;50.518;10.870;2023-01-13T02:53:25;95677.00;;;6.74;100.00
32933;BME280;19444;50.518;10.870;2023-01-13T02:56:24;95671.03;;;6.69;100.00
32933;BME280;19444;50.518;10.870;2023-01-13T02:59:22;95666.66;;;6.73;100.00
32933;BME280;19444;50.518;10.870;2023-01-13T03:02:22;95665.88;;;6.72;100.00
32933;BME280;19444;50.518;10.870;2023-01-13T03:05:20;95674.41;;;6.83;100.00
32933;BME280;19444;50.518;10.870;2023-01-13T03:08:37;95666.81;;;6.68;100.00
32933;BME280;19444;50.518;10.870;2023-01-13T03:15:23;95680.69;;;6.65;100.00
32933;BME280;19444;50.518;10.870;2023-01-13T03:21:38;95673.75;;;6.55;100.00
32933;BME280;19444;50.518;10.870;2023-01-13T03:24:46;95675.50;;;6.60;100.00
32933;BME280;19444;50.518;10.870;2023-01-13T03:27:52;95670.97;;;6.60;100.00
32933;BME280;19444;50.518;10.870;2023-01-13T03:30:55;95668.88;;;6.57;100.00
32933;BME280;19444;50.518;10.870;2023-01-13T03:33:57;95667.53;;;6.60;100.00
32933;BME280;19444;50.518;10.870;2023-01-13T03:36:55;95673.13;;;6.58;100.00
32933;BME280;19444;50.518;10.870;2023-01-13T03:39:56;95672.31;;;6.71;100.00
32933;BME280;19444;50.518;10.870;2023-01-13T03:43:01;95666.91;;;6.63;100.00
32933;BME280;19444;50.518;10.870;2023-01-13T03:46:26;95672.22;;;6.63;100.00
32933;BME280;19444;50.518;10.870;2023-01-13T03:49:47;95671.28;;;6.59;100.00
32933;BME280;19444;50.518;10.870;2023-01-13T03:52:52;95676.78;;;6.62;100.00
32933;BME280;19444;50.518;10.870;2023-01-13T03:55:58;95663.78;;;6.61;100.00
32933;BME280;19444;50.518;10.870;2023-01-13T03:58:57;95666.28;;;6.66;100.00
32933;BME280;19444;50.518;10.870;2023-01-13T04:02:11;95669.41;;;6.59;100.00
32933;BME280;19444;50.518;10.870;2023-01-13T04:05:11;95666.53;;;6.55;100.00
32933;BME280;19444;50.518;10.870;2023-01-13T04:08:19;95660.50;;;6.64;100.00
32933;BME280;19444;50.518;10.870;2023-01-13T04:11:18;95651.56;;;6.60;100.00
32933;BME280;19444;50.518;10.870;2023-01-13T04:14:20;95649.16;;;6.58;100.00
32933;BME280;19444;50.518;10.870;2023-01-13T04:17:18;95657.53;;;6.65;100.00
32933;BME280;19444;50.518;10.870;2023-01-13T04:20:16;95666.59;;;6.64;100.00
32933;BME280;19444;50.518;10.870;2023-01-13T04:23:13;95673.03;;;6.63;100.00
32933;BME280;19444;50.518;10.870;2023-01-13T04:26:10;95671.38;;;6.53;100.00
32933;BME280;19444;50.518;10.870;2023-01-13T04:29:07;95672.06;;;6.59;100.00
32933;BME280;19444;50.518;10.870;2023-01-13T04:32:04;95670.19;;;6.60;100.00
32933;BME280;19444;50.518;10.870;2023-01-13T04:35:00;95664.72;;;6.65;100.00
32933;BME280;19444;50.518;10.870;2023-01-13T04:38:02;95658.31;;;6.66;100.00
32933;BME280;19444;50.518;10.870;2023-01-13T04:40:59;95654.38;;;6.63;100.00
32933;BME280;19444;50.518;10.870;2023-01-13T04:43:55;95655.84;;;6.69;100.00
32933;BME280;19444;50.518;10.870;2023-01-13T04:46:52;95663.63;;;6.66;100.00
32933;BME280;19444;50.518;10.870;2023-01-13T04:49:49;95670.84;;;6.65;100.00
32933;BME280;19444;50.518;10.870;2023-01-13T04:52:46;95663.16;;;6.64;100.00
32933;BME280;19444;50.518;10.870;2023-01-13T04:55:43;95650.63;;;6.64;100.00
32933;BME280;19444;50.518;10.870;2023-01-13T04:58:40;95648.66;;;6.70;100.00
32933;BME280;19444;50.518;10.870;2023-01-13T05:01:37;95656.50;;;6.75;100.00
32933;BME280;19444;50.518;10.870;2023-01-13T05:04:34;95649.13;;;6.72;100.00
32933;BME280;19444;50.518;10.870;2023-01-13T05:07:31;95648.44;;;6.66;100.00
32933;BME280;19444;50.518;10.870;2023-01-13T05:10:28;95648.19;;;6.76;100.00
32933;BME280;19444;50.518;10.870;2023-01-13T05:13:25;95649.59;;;6.74;100.00
32933;BME280;19444;50.518;10.870;2023-01-13T05:16:40;95650.59;;;6.78;100.00
32933;BME280;19444;50.518;10.870;2023-01-13T05:19:56;95645.66;;;6.71;100.00
32933;BME280;19444;50.518;10.870;2023-01-13T05:22:52;95648.03;;;6.73;100.00
32933;BME280;19444;50.518;10.870;2023-01-13T05:26:08;95639.16;;;6.77;100.00
32933;BME280;19444;50.518;10.870;2023-01-13T05:29:05;95635.44;;;6.65;100.00
32933;BME280;19444;50.518;10.870;2023-01-13T05:32:02;95631.88;;;6.69;100.00
32933;BME280;19444;50.518;10.870;2023-01-13T05:35:02;95626.06;;;6.67;100.00
32933;BME280;19444;50.518;10.870;2023-01-13T05:37:59;95632.47;;;6.66;100.00
32933;BME280;19444;50.518;10.870;2023-01-13T05:40:58;95625.72;;;6.60;100.00
32933;BME280;19444;50.518;10.870;2023-01-13T05:44:13;95632.41;;;6.57;100.00
32933;BME280;19444;50.518;10.870;2023-01-13T05:47:11;95628.69;;;6.59;100.00
32933;BME280;19444;50.518;10.870;2023-01-13T05:50:08;95637.47;;;6.59;100.00
32933;BME280;19444;50.518;10.870;2023-01-13T05:53:05;95632.06;;;6.50;100.00
32933;BME280;19444;50.518;10.870;2023-01-13T05:56:03;95634.91;;;6.54;100.00
32933;BME280;19444;50.518;10.870;2023-01-13T05:59:00;95636.94;;;6.57;100.00
32933;BME280;19444;50.518;10.870;2023-01-13T06:01:57;95640.41;;;6.57;100.00
32933;BME280;19444;50.518;10.870;2023-01-13T06:04:54;95650.25;;;6.57;100.00
32933;BME280;19444;50.518;10.870;2023-01-13T06:07:55;95656.09;;;6.59;100.00
32933;BME280;19444;50.518;10.870;2023-01-13T06:10:52;95632.97;;;6.68;100.00
32933;BME280;19444;50.518;10.870;2023-01-13T06:13:49;95643.44;;;6.65;100.00
32933;BME280;19444;50.518;10.870;2023-01-13T06:16:46;95654.91;;;6.74;100.00
32933;BME280;19444;50.518;10.870;2023-01-13T06:19:43;95645.97;;;6.70;100.00
32933;BME280;19444;50.518;10.870;2023-01-13T06:22:41;95649.28;;;6.75;100.00
32933;BME280;19444;50.518;10.870;2023-01-13T06:28:57;95651.31;;;6.70;100.00
32933;BME280;19444;50.518;10.870;2023-01-13T06:31:55;95632.97;;;6.68;100.00
32933;BME280;19444;50.518;10.870;2023-01-13T06:34:55;95641.44;;;6.70;100.00
32933;BME280;19444;50.518;10.870;2023-01-13T06:37:55;95623.91;;;6.69;100.00
32933;BME280;19444;50.518;10.870;2023-01-13T06:40:53;95630.59;;;6.67;100.00
32933;BME280;19444;50.518;10.870;2023-01-13T06:43:50;95627.72;;;6.77;100.00
32933;BME280;19444;50.518;10.870;2023-01-13T06:46:47;95617.78;;;6.69;100.00
32933;BME280;19444;50.518;10.870;2023-01-13T06:49:44;95626.09;;;6.76;100.00
32933;BME280;19444;50.518;10.870;2023-01-13T06:52:40;95621.75;;;6.80;100.00
32933;BME280;19444;50.518;10.870;2023-01-13T06:55:37;95628.66;;;6.81;100.00
32933;BME280;19444;50.518;10.870;2023-01-13T06:58:34;95629.28;;;6.78;100.00
32933;BME280;19444;50.518;10.870;2023-01-13T07:01:34;95630.66;;;6.75;100.00
32933;BME280;19444;50.518;10.870;2023-01-13T07:04:31;95627.72;;;6.77;100.00
32933;BME280;19444;50.518;10.870;2023-01-13T07:07:28;95635.38;;;6.78;100.00
32933;BME280;19444;50.518;10.870;2023-01-13T07:10:24;95675.91;;;6.75;100.00
32933;BME280;19444;50.518;10.870;2023-01-13T07:13:21;95746.16;;;5.88;100.00
32933;BME280;19444;50.518;10.870;2023-01-13T07:16:37;95732.94;;;5.09;100.00
32933;BME280;19444;50.518;10.870;2023-01-13T07:19:33;95743.38;;;5.06;100.00
32933;BME280;19444;50.518;10.870;2023-01-13T07:22:30;95739.94;;;5.05;100.00
32933;BME280;19444;50.518;10.870;2023-01-13T07:25:27;95748.50;;;5.16;100.00
32933;BME280;19444;50.518;10.870;2023-01-13T07:28:24;95739.63;;;5.07;100.00
32933;BME280;19444;50.518;10.870;2023-01-13T07:31:22;95740.84;;;5.28;100.00
32933;BME280;19444;50.518;10.870;2023-01-13T07:34:18;95747.19;;;5.32;100.00
32933;BME280;19444;50.518;10.870;2023-01-13T07:37:15;95753.41;;;5.09;100.00
32933;BME280;19444;50.518;10.870;2023-01-13T07:40:12;95764.38;;;5.21;100.00
32933;BME280;19444;50.518;10.870;2023-01-13T07:43:11;95763.38;;;5.17;100.00
32933;BME280;19444;50.518;10.870;2023-01-13T07:46:26;95765.22;;;5.17;100.00
32933;BME280;19444;50.518;10.870;2023-01-13T07:49:23;95763.16;;;5.13;100.00
32933;BME280;19444;50.518;10.870;2023-01-13T07:52:20;95760.81;;;4.93;100.00
32933;BME280;19444;50.518;10.870;2023-01-13T07:55:17;95769.78;;;4.97;100.00
32933;BME280;19444;50.518;10.870;2023-01-13T07:58:16;95778.19;;;5.04;100.00
32933;BME280;19444;50.518;10.870;2023-01-13T08:01:14;95765.31;;;5.11;100.00
32933;BME280;19444;50.518;10.870;2023-01-13T08:04:12;95772.44;;;5.30;100.00
32933;BME280;19444;50.518;10.870;2023-01-13T08:07:09;95779.34;;;5.31;100.00
32933;BME280;19444;50.518;10.870;2023-01-13T08:10:06;95787.81;;;5.33;100.00
32933;BME280;19444;50.518;10.870;2023-01-13T08:13:09;95788.50;;;5.38;100.00
32933;BME280;19444;50.518;10.870;2023-01-13T08:16:16;95800.44;;;5.41;100.00
32933;BME280;19444;50.518;10.870;2023-01-13T08:19:13;95785.66;;;5.35;100.00
32933;BME280;19444;50.518;10.870;2023-01-13T08:22:10;95778.31;;;5.13;100.00
32933;BME280;19444;50.518;10.870;2023-01-13T08:25:07;95775.97;;;5.25;100.00
32933;BME280;19444;50.518;10.870;2023-01-13T08:28:04;95771.03;;;5.19;100.00
32933;BME280;19444;50.518;10.870;2023-01-13T08:31:02;95776.06;;;5.20;100.00
32933;BME280;19444;50.518;10.870;2023-01-13T08:33:59;95777.25;;;5.28;100.00
32933;BME280;19444;50.518;10.870;2023-01-13T08:36:56;95788.31;;;5.35;100.00
32933;BME280;19444;50.518;10.870;2023-01-13T08:39:53;95777.31;;;5.41;100.00
32933;BME280;19444;50.518;10.870;2023-01-13T08:42:50;95762.63;;;5.30;100.00
32933;BME280;19444;50.518;10.870;2023-01-13T08:45:59;95771.66;;;5.29;100.00
32933;BME280;19444;50.518;10.870;2023-01-13T08:48:56;95755.06;;;5.37;100.00
32933;BME280;19444;50.518;10.870;2023-01-13T08:51:53;95768.81;;;5.26;100.00
32933;BME280;19444;50.518;10.870;2023-01-13T08:54:49;95790.00;;;5.45;100.00
32933;BME280;19444;50.518;10.870;2023-01-13T08:57:46;95777.88;;;5.38;100.00
32933;BME280;19444;50.518;10.870;2023-01-13T09:00:43;95796.34;;;5.30;100.00
32933;BME280;19444;50.518;10.870;2023-01-13T09:03:40;95791.16;;;5.38;100.00
32933;BME280;19444;50.518;10.870;2023-01-13T09:06:37;95801.47;;;5.26;100.00
32933;BME280;19444;50.518;10.870;2023-01-13T09:09:34;95792.91;;;5.29;100.00
32933;BME280;19444;50.518;10.870;2023-01-13T09:12:31;95803.47;;;5.34;100.00
32933;BME280;19444;50.518;10.870;2023-01-13T09:15:46;95819.16;;;5.50;100.00
32933;BME280;19444;50.518;10.870;2023-01-13T09:18:43;95819.59;;;5.38;100.00
32933;BME280;19444;50.518;10.870;2023-01-13T09:21:39;95816.78;;;5.48;100.00
32933;BME280;19444;50.518;10.870;2023-01-13T09:24:36;95829.25;;;5.34;100.00
32933;BME280;19444;50.518;10.870;2023-01-13T09:27:33;95826.88;;;5.32;100.00
32933;BME280;19444;50.518;10.870;2023-01-13T09:30:30;95824.66;;;5.39;100.00
32933;BME280;19444;50.518;10.870;2023-01-13T09:33:27;95824.72;;;5.34;100.00
32933;BME280;19444;50.518;10.870;2023-01-13T09:36:42;95823.69;;;5.49;100.00
32933;BME280;19444;50.518;10.870;2023-01-13T09:39:39;95827.53;;;5.24;100.00
32933;BME280;19444;50.518;10.870;2023-01-13T09:42:45;95819.41;;;5.34;100.00
32933;BME280;19444;50.518;10.870;2023-01-13T09:46:06;95829.25;;;5.34;100.00
32933;BME280;19444;50.518;10.870;2023-01-13T09:49:39;95831.00;;;5.38;100.00
32933;BME280;19444;50.518;10.870;2023-01-13T09:52:36;95820.69;;;5.37;100.00
32933;BME280;19444;50.518;10.870;2023-01-13T09:55:33;95815.75;;;5.63;100.00
32933;BME280;19444;50.518;10.870;2023-01-13T09:58:33;95820.25;;;5.49;100.00
32933;BME280;19444;50.518;10.870;2023-01-13T10:05:35;95813.31;;;5.48;100.00
32933;BME280;19444;50.518;10.870;2023-01-13T10:08:34;95812.84;;;5.46;100.00
32933;BME280;19444;50.518;10.870;2023-01-13T10:11:37;95811.69;;;5.52;100.00
32933;BME280;19444;50.518;10.870;2023-01-13T10:14:54;95807.66;;;5.54;100.00
32933;BME280;19444;50.518;10.870;2023-01-13T10:18:05;95810.91;;;5.51;100.00
32933;BME280;19444;50.518;10.870;2023-01-13T10:27:52;95800.56;;;5.50;100.00
32933;BME280;19444;50.518;10.870;2023-01-13T10:30:51;95792.81;;;5.67;100.00
32933;BME280;19444;50.518;10.870;2023-01-13T10:33:48;95776.97;;;5.76;100.00
32933;BME280;19444;50.518;10.870;2023-01-13T10:37:00;95794.50;;;5.77;100.00
32933;BME280;19444;50.518;10.870;2023-01-13T10:40:04;95789.75;;;5.74;100.00
32933;BME280;19444;50.518;10.870;2023-01-13T10:43:12;95795.66;;;5.70;100.00
32933;BME280;19444;50.518;10.870;2023-01-13T10:46:13;95797.25;;;5.58;100.00
32933;BME280;19444;50.518;10.870;2023-01-13T10:49:38;95804.63;;;5.75;100.00
32933;BME280;19444;50.518;10.870;2023-01-13T10:52:37;95797.72;;;6.06;100.00
32933;BME280;19444;50.518;10.870;2023-01-13T10:55:38;95802.38;;;5.82;100.00
32933;BME280;19444;50.518;10.870;2023-01-13T10:58:36;95799.88;;;6.04;100.00
32933;BME280;19444;50.518;10.870;2023-01-13T11:01:33;95802.22;;;5.92;100.00
32933;BME280;19444;50.518;10.870;2023-01-13T11:04:35;95790.78;;;5.91;100.00
32933;BME280;19444;50.518;10.870;2023-01-13T11:07:35;95791.59;;;6.33;100.00
32933;BME280;19444;50.518;10.870;2023-01-13T11:10:32;95784.69;;;6.32;100.00
32933;BME280;19444;50.518;10.870;2023-01-13T11:16:27;95790.81;;;6.33;100.00
32933;BME280;19444;50.518;10.870;2023-01-13T11:19:25;95789.22;;;6.32;100.00
32933;BME280;19444;50.518;10.870;2023-01-13T11:22:26;95791.97;;;6.40;100.00
32933;BME280;19444;50.518;10.870;2023-01-13T11:25:28;95789.63;;;6.25;100.00
32933;BME280;19444;50.518;10.870;2023-01-13T11:29:01;95790.19;;;6.36;100.00
32933;BME280;19444;50.518;10.870;2023-01-13T11:32:10;95795.88;;;6.56;100.00
32933;BME280;19444;50.518;10.870;2023-01-13T11:35:17;95795.78;;;6.62;100.00
32933;BME280;19444;50.518;10.870;2023-01-13T11:41:47;95797.66;;;6.47;100.00
32933;BME280;19444;50.518;10.870;2023-01-13T11:45:29;95798.84;;;6.55;100.00
32933;BME280;19444;50.518;10.870;2023-01-13T11:48:29;95809.41;;;6.19;100.00
32933;BME280;19444;50.518;10.870;2023-01-13T11:51:35;95808.00;;;6.63;100.00
32933;BME280;19444;50.518;10.870;2023-01-13T11:57:48;95796.50;;;6.53;100.00
32933;BME280;19444;50.518;10.870;2023-01-13T12:04:25;95789.13;;;6.37;100.00
32933;BME280;19444;50.518;10.870;2023-01-13T12:14:19;95787.75;;;6.25;100.00
32933;BME280;19444;50.518;10.870;2023-01-13T12:24:20;95801.25;;;6.43;100.00
32933;BME280;19444;50.518;10.870;2023-01-13T12:27:32;95783.66;;;6.55;100.00
32933;BME280;19444;50.518;10.870;2023-01-13T12:30:39;95780.66;;;6.35;100.00
32933;BME280;19444;50.518;10.870;2023-01-13T12:40:28;95764.94;;;6.61;100.00
32933;BME280;19444;50.518;10.870;2023-01-13T12:43:33;95759.00;;;6.64;100.00
32933;BME280;19444;50.518;10.870;2023-01-13T12:46:50;95754.59;;;6.59;100.00
32933;BME280;19444;50.518;10.870;2023-01-13T12:49:52;95755.56;;;6.63;100.00
32933;BME280;19444;50.518;10.870;2023-01-13T12:53:31;95773.75;;;7.06;100.00
32933;BME280;19444;50.518;10.870;2023-01-13T12:59:33;95768.53;;;6.78;100.00
32933;BME280;19444;50.518;10.870;2023-01-13T13:02:40;95777.91;;;6.26;100.00
32933;BME280;19444;50.518;10.870;2023-01-13T13:09:02;95783.81;;;6.73;100.00
32933;BME280;19444;50.518;10.870;2023-01-13T13:15:40;95791.59;;;6.33;100.00
32933;BME280;19444;50.518;10.870;2023-01-13T13:18:37;95787.94;;;6.43;100.00
32933;BME280;19444;50.518;10.870;2023-01-13T13:28:10;95812.47;;;6.12;100.00
32933;BME280;19444;50.518;10.870;2023-01-13T13:31:29;95814.34;;;6.12;100.00
32933;BME280;19444;50.518;10.870;2023-01-13T13:37:57;95825.28;;;6.10;100.00
32933;BME280;19444;50.518;10.870;2023-01-13T13:41:23;95819.75;;;5.93;100.00
32933;BME280;19444;50.518;10.870;2023-01-13T13:44:39;95850.09;;;5.92;100.00
32933;BME280;19444;50.518;10.870;2023-01-13T13:47:56;95851.50;;;5.84;100.00
32933;BME280;19444;50.518;10.870;2023-01-13T13:50:55;95855.44;;;5.73;100.00
32933;BME280;19444;50.518;10.870;2023-01-13T13:53:55;95851.88;;;5.64;100.00
32933;BME280;19444;50.518;10.870;2023-01-13T13:56:57;95867.91;;;5.59;100.00
32933;BME280;19444;50.518;10.870;2023-01-13T13:59:56;95868.44;;;5.75;100.00
32933;BME280;19444;50.518;10.870;2023-01-13T14:03:18;95854.28;;;5.79;100.00
32933;BME280;19444;50.518;10.870;2023-01-13T14:06:22;95862.19;;;5.65;100.00
32933;BME280;19444;50.518;10.870;2023-01-13T14:09:23;95868.84;;;5.82;100.00
32933;BME280;19444;50.518;10.870;2023-01-13T14:12:22;95863.28;;;5.64;100.00
32933;BME280;19444;50.518;10.870;2023-01-13T14:18:24;95874.72;;;5.65;100.00
32933;BME280;19444;50.518;10.870;2023-01-13T14:24:20;95870.00;;;5.43;100.00
32933;BME280;19444;50.518;10.870;2023-01-13T14:27:18;95876.19;;;5.38;100.00
32933;BME280;19444;50.518;10.870;2023-01-13T14:30:15;95880.81;;;5.33;100.00
32933;BME280;19444;50.518;10.870;2023-01-13T14:33:16;95890.41;;;5.48;100.00
32933;BME280;19444;50.518;10.870;2023-01-13T14:36:44;95902.34;;;5.50;100.00
32933;BME280;19444;50.518;10.870;2023-01-13T14:39:46;95901.75;;;5.53;100.00
32933;BME280;19444;50.518;10.870;2023-01-13T14:42:43;95903.91;;;5.51;100.00
32933;BME280;19444;50.518;10.870;2023-01-13T14:45:57;95904.41;;;5.53;100.00
32933;BME280;19444;50.518;10.870;2023-01-13T14:49:00;95898.72;;;5.60;100.00
32933;BME280;19444;50.518;10.870;2023-01-13T14:52:13;95910.16;;;5.60;100.00
32933;BME280;19444;50.518;10.870;2023-01-13T14:55:33;95920.91;;;5.69;100.00
32933;BME280;19444;50.518;10.870;2023-01-13T14:58:31;95910.13;;;5.79;100.00
32933;BME280;19444;50.518;10.870;2023-01-13T15:01:32;95912.72;;;5.47;100.00
32933;BME280;19444;50.518;10.870;2023-01-13T15:04:32;95910.00;;;5.52;100.00
32933;BME280;19444;50.518;10.870;2023-01-13T15:07:34;95899.41;;;5.33;100.00
32933;BME280;19444;50.518;10.870;2023-01-13T15:10:36;95896.38;;;5.21;100.00
32933;BME280;19444;50.518;10.870;2023-01-13T15:13:40;95891.44;;;5.14;100.00
32933;BME280;19444;50.518;10.870;2023-01-13T15:16:44;95905.22;;;5.16;100.00
32933;BME280;19444;50.518;10.870;2023-01-13T15:19:40;95918.28;;;5.12;100.00
32933;BME280;19444;50.518;10.870;2023-01-13T15:22:37;95927.84;;;5.13;100.00
32933;BME280;19444;50.518;10.870;2023-01-13T15:25:39;95939.25;;;5.14;100.00
32933;BME280;19444;50.518;10.870;2023-01-13T15:28:37;95955.03;;;5.24;100.00
32933;BME280;19444;50.518;10.870;2023-01-13T15:31:34;95951.50;;;5.29;100.00
32933;BME280;19444;50.518;10.870;2023-01-13T15:34:30;95958.28;;;5.21;100.00
32933;BME280;19444;50.518;10.870;2023-01-13T15:37:27;95968.53;;;5.28;100.00
32933;BME280;19444;50.518;10.870;2023-01-13T15:40:28;95958.78;;;5.23;100.00
32933;BME280;19444;50.518;10.870;2023-01-13T15:43:25;95981.38;;;5.21;100.00
32933;BME280;19444;50.518;10.870;2023-01-13T15:46:40;95977.09;;;5.25;100.00
32933;BME280;19444;50.518;10.870;2023-01-13T15:49:44;95988.72;;;5.29;100.00
32933;BME280;19444;50.518;10.870;2023-01-13T15:52:41;95994.59;;;5.26;100.00
32933;BME280;19444;50.518;10.870;2023-01-13T15:55:38;95994.09;;;5.24;100.00
32933;BME280;19444;50.518;10.870;2023-01-13T15:58:35;95996.34;;;5.35;100.00
32933;BME280;19444;50.518;10.870;2023-01-13T16:01:32;95992.66;;;5.12;100.00
32933;BME280;19444;50.518;10.870;2023-01-13T16:04:29;96002.34;;;5.22;100.00
32933;BME280;19444;50.518;10.870;2023-01-13T16:07:26;96013.19;;;5.26;100.00
32933;BME280;19444;50.518;10.870;2023-01-13T16:10:24;96018.56;;;5.21;100.00
32933;BME280;19444;50.518;10.870;2023-01-13T16:13:23;96014.63;;;5.18;100.00
32933;BME280;19444;50.518;10.870;2023-01-13T16:16:26;96017.09;;;5.09;100.00
32933;BME280;19444;50.518;10.870;2023-01-13T16:19:23;96029.16;;;5.02;100.00
32933;BME280;19444;50.518;10.870;2023-01-13T16:22:20;96041.13;;;4.99;100.00
32933;BME280;19444;50.518;10.870;2023-01-13T16:25:25;96043.22;;;5.02;100.00
32933;BME280;19444;50.518;10.870;2023-01-13T16:28:24;96042.25;;;4.93;100.00
32933;BME280;19444;50.518;10.870;2023-01-13T16:31:30;96040.44;;;4.89;100.00
32933;BME280;19444;50.518;10.870;2023-01-13T16:34:28;96051.28;;;4.92;100.00
32933;BME280;19444;50.518;10.870;2023-01-13T16:37:25;96051.13;;;4.83;100.00
32933;BME280;19444;50.518;10.870;2023-01-13T16:40:28;96049.50;;;4.88;100.00
32933;BME280;19444;50.518;10.870;2023-01-13T16:43:26;96051.38;;;4.87;100.00
32933;BME280;19444;50.518;10.870;2023-01-13T16:46:25;96039.94;;;4.87;100.00
32933;BME280;19444;50.518;10.870;2023-01-13T16:49:22;96047.44;;;4.79;100.00
32933;BME280;19444;50.518;10.870;2023-01-13T16:52:19;96054.34;;;4.80;100.00
32933;BME280;19444;50.518;10.870;2023-01-13T16:55:15;96055.09;;;4.86;100.00
32933;BME280;19444;50.518;10.870;2023-01-13T16:58:17;96063.31;;;4.84;100.00
32933;BME280;19444;50.518;10.870;2023-01-13T17:01:24;96052.16;;;4.88;100.00
32933;BME280;19444;50.518;10.870;2023-01-13T17:04:22;96072.09;;;4.85;100.00
32933;BME280;19444;50.518;10.870;2023-01-13T17:07:19;96056.19;;;4.80;100.00
32933;BME280;19444;50.518;10.870;2023-01-13T17:10:21;96068.47;;;4.76;100.00
32933;BME280;19444;50.518;10.870;2023-01-13T17:13:18;96075.78;;;4.84;100.00
32933;BME280;19444;50.518;10.870;2023-01-13T17:16:19;96076.16;;;4.77;100.00
32933;BME280;19444;50.518;10.870;2023-01-13T17:19:16;96095.00;;;4.76;100.00
32933;BME280;19444;50.518;10.870;2023-01-13T17:22:13;96089.63;;;4.81;100.00